sensor_id;sensor_type;location;lat;lon;timestamp;pressure;altitude;pressure_sealevel;temperature;humidity
72794;BME280;63436;26.334;50.194;2022-09-27T00:00:17;100744.59;;;29.76;18.36
72794;BME280;63436;26.334;50.194;2022-09-27T00:02:59;100743.15;;;31.42;17.00
72794;BME280;63436;26.334;50.194;2022-09-27T00:05:21;100745.62;;;31.51;16.73
72794;BME280;63436;26.334;50.194;2022-09-27T00:07:35;100744.25;;;32.28;16.36
72794;BME280;63436;26.334;50.194;2022-09-27T00:10:04;100745.43;;;32.39;15.82
72794;BME280;63436;26.334;50.194;2022-09-27T00:12:26;100745.33;;;32.82;15.17
72794;BME280;63436;26.334;50.194;2022-09-27T00:14:54;100745.86;;;32.25;15.34
72794;BME280;63436;26.334;50.194;2022-09-27T00:17:20;100741.69;;;33.06;14.85
72794;BME280;63436;26.334;50.194;2022-09-27T00:24:44;100737.29;;;32.46;14.98
72794;BME280;63436;26.334;50.194;2022-09-27T00:27:25;100740.24;;;31.35;15.36
72794;BME280;63436;26.334;50.194;2022-09-27T00:29:49;100738.95;;;32.30;14.96
72794;BME280;63436;26.334;50.194;2022-09-27T00:34:57;100745.91;;;31.86;14.74
72794;BME280;63436;26.334;50.194;2022-09-27T00:37:15;100743.73;;;31.53;14.81
72794;BME280;63436;26.334;50.194;2022-09-27T00:39:33;100741.89;;;32.36;14.59
72794;BME280;63436;26.334;50.194;2022-09-27T00:42:03;100741.39;;;31.41;14.70
72794;BME280;63436;26.334;50.194;2022-09-27T00:46:57;100747.28;;;33.57;13.65
72794;BME280;63436;26.334;50.194;2022-09-27T00:49:21;100754.73;;;32.93;14.02
72794;BME280;63436;26.334;50.194;2022-09-27T00:51:46;100761.90;;;33.51;13.90
72794;BME280;63436;26.334;50.194;2022-09-27T00:56:35;100770.61;;;31.99;14.54
72794;BME280;63436;26.334;50.194;2022-09-27T00:59:02;100779.50;;;31.24;15.13
72794;BME280;63436;26.334;50.194;2022-09-27T01:01:25;100780.26;;;32.10;14.75
72794;BME280;63436;26.334;50.194;2022-09-27T01:06:19;100787.36;;;31.98;14.80
72794;BME280;63436;26.334;50.194;2022-09-27T01:08:42;100779.62;;;31.95;14.79
72794;BME280;63436;26.334;50.194;2022-09-27T01:11:16;100778.89;;;31.46;14.89
72794;BME280;63436;26.334;50.194;2022-09-27T01:13:38;100778.24;;;32.39;14.41
72794;BME280;63436;26.334;50.194;2022-09-27T01:16:03;100782.42;;;32.64;14.13
72794;BME280;63436;26.334;50.194;2022-09-27T01:18:32;100787.01;;;32.42;14.29
72794;BME280;63436;26.334;50.194;2022-09-27T01:23:25;100791.16;;;33.04;13.87
72794;BME280;63436;26.334;50.194;2022-09-27T01:25:55;100798.23;;;32.54;13.72
72794;BME280;63436;26.334;50.194;2022-09-27T01:28:19;100804.98;;;32.78;13.52
72794;BME280;63436;26.334;50.194;2022-09-27T01:30:40;100808.29;;;31.72;14.48
72794;BME280;63436;26.334;50.194;2022-09-27T01:33:05;100801.86;;;32.50;13.96
72794;BME280;63436;26.334;50.194;2022-09-27T01:35:28;100806.97;;;31.88;14.18
72794;BME280;63436;26.334;50.194;2022-09-27T01:37:50;100808.26;;;31.53;14.38
72794;BME280;63436;26.334;50.194;2022-09-27T01:40:29;100809.64;;;31.48;14.17
72794;BME280;63436;26.334;50.194;2022-09-27T01:42:43;100812.20;;;31.38;14.26
72794;BME280;63436;26.334;50.194;2022-09-27T01:45:09;100816.50;;;31.61;14.03
72794;BME280;63436;26.334;50.194;2022-09-27T01:47:36;100818.31;;;31.94;13.97
72794;BME280;63436;26.334;50.194;2022-09-27T01:49:57;100819.18;;;30.96;14.00
72794;BME280;63436;26.334;50.194;2022-09-27T01:52:26;100814.78;;;31.97;13.70
72794;BME280;63436;26.334;50.194;2022-09-27T01:54:52;100809.91;;;31.83;13.84
72794;BME280;63436;26.334;50.194;2022-09-27T01:57:16;100814.68;;;30.86;13.94
72794;BME280;63436;26.334;50.194;2022-09-27T01:59:45;100811.21;;;31.80;13.33
72794;BME280;63436;26.334;50.194;2022-09-27T02:02:06;100805.14;;;31.70;13.24
72794;BME280;63436;26.334;50.194;2022-09-27T02:04:33;100803.63;;;31.79;13.15
72794;BME280;63436;26.334;50.194;2022-09-27T02:06:56;100803.98;;;31.59;13.11
72794;BME280;63436;26.334;50.194;2022-09-27T02:09:25;100802.35;;;31.32;13.18
72794;BME280;63436;26.334;50.194;2022-09-27T02:11:48;100807.32;;;31.10;13.26
72794;BME280;63436;26.334;50.194;2022-09-27T02:14:16;100810.54;;;31.38;13.13
72794;BME280;63436;26.334;50.194;2022-09-27T02:16:44;100813.09;;;31.52;13.40
72794;BME280;63436;26.334;50.194;2022-09-27T02:21:31;100814.62;;;30.59;13.58
72794;BME280;63436;26.334;50.194;2022-09-27T02:23:54;100817.15;;;31.54;13.11
72794;BME280;63436;26.334;50.194;2022-09-27T02:26:21;100817.16;;;30.89;13.39
72794;BME280;63436;26.334;50.194;2022-09-27T02:28:46;100822.96;;;31.36;13.29
72794;BME280;63436;26.334;50.194;2022-09-27T02:31:14;100819.69;;;31.37;12.98
72794;BME280;63436;26.334;50.194;2022-09-27T02:33:46;100821.38;;;31.39;12.85
72794;BME280;63436;26.334;50.194;2022-09-27T02:36:11;100821.47;;;31.55;12.95
72794;BME280;63436;26.334;50.194;2022-09-27T02:38:32;100821.32;;;31.16;13.15
72794;BME280;63436;26.334;50.194;2022-09-27T02:40:51;100820.54;;;30.53;13.23
72794;BME280;63436;26.334;50.194;2022-09-27T02:43:18;100820.01;;;30.34;13.56
72794;BME280;63436;26.334;50.194;2022-09-27T02:45:52;100822.73;;;31.16;12.86
72794;BME280;63436;26.334;50.194;2022-09-27T02:48:16;100824.35;;;31.30;12.79
72794;BME280;63436;26.334;50.194;2022-09-27T02:50:44;100824.45;;;31.64;12.56
72794;BME280;63436;26.334;50.194;2022-09-27T02:53:05;100824.14;;;30.89;12.97
72794;BME280;63436;26.334;50.194;2022-09-27T02:55:29;100829.27;;;31.07;12.80
72794;BME280;63436;26.334;50.194;2022-09-27T02:57:59;100828.29;;;30.92;13.08
72794;BME280;63436;26.334;50.194;2022-09-27T03:00:18;100833.18;;;31.12;12.80
72794;BME280;63436;26.334;50.194;2022-09-27T03:02:52;100831.95;;;31.99;12.31
72794;BME280;63436;26.334;50.194;2022-09-27T03:09:57;100823.98;;;30.86;12.57
72794;BME280;63436;26.334;50.194;2022-09-27T03:12:23;100826.67;;;31.35;12.46
72794;BME280;63436;26.334;50.194;2022-09-27T03:14:48;100832.86;;;31.19;12.53
72794;BME280;63436;26.334;50.194;2022-09-27T03:17:13;100836.47;;;31.04;12.70
72794;BME280;63436;26.334;50.194;2022-09-27T03:19:39;100841.63;;;31.04;12.98
72794;BME280;63436;26.334;50.194;2022-09-27T03:22:05;100838.90;;;31.36;12.88
72794;BME280;63436;26.334;50.194;2022-09-27T03:24:30;100837.33;;;31.31;12.88
72794;BME280;63436;26.334;50.194;2022-09-27T03:26:56;100838.10;;;31.21;13.16
72794;BME280;63436;26.334;50.194;2022-09-27T03:29:21;100843.14;;;30.65;13.38
72794;BME280;63436;26.334;50.194;2022-09-27T03:31:52;100846.01;;;31.96;12.71
72794;BME280;63436;26.334;50.194;2022-09-27T03:34:17;100847.81;;;30.96;13.38
72794;BME280;63436;26.334;50.194;2022-09-27T03:39:04;100853.34;;;31.53;13.53
72794;BME280;63436;26.334;50.194;2022-09-27T03:41:38;100849.09;;;30.65;13.89
72794;BME280;63436;26.334;50.194;2022-09-27T03:43:54;100847.04;;;31.23;13.78
72794;BME280;63436;26.334;50.194;2022-09-27T03:46:20;100844.65;;;31.55;13.77
72794;BME280;63436;26.334;50.194;2022-09-27T03:48:46;100848.35;;;30.27;13.94
72794;BME280;63436;26.334;50.194;2022-09-27T03:51:25;100855.05;;;30.17;14.14
72794;BME280;63436;26.334;50.194;2022-09-27T03:53:42;100863.34;;;31.62;13.14
72794;BME280;63436;26.334;50.194;2022-09-27T04:01:03;100859.96;;;32.63;12.46
72794;BME280;63436;26.334;50.194;2022-09-27T04:03:39;100861.80;;;31.71;12.67
72794;BME280;63436;26.334;50.194;2022-09-27T04:08:30;100873.99;;;33.17;12.93
72794;BME280;63436;26.334;50.194;2022-09-27T04:10:55;100882.02;;;32.70;13.53
72794;BME280;63436;26.334;50.194;2022-09-27T04:13:11;100884.42;;;32.42;13.94
72794;BME280;63436;26.334;50.194;2022-09-27T04:15:36;100886.62;;;32.60;14.25
72794;BME280;63436;26.334;50.194;2022-09-27T04:18:02;100877.51;;;32.83;13.93
72794;BME280;63436;26.334;50.194;2022-09-27T04:22:52;100885.94;;;33.16;14.51
72794;BME280;63436;26.334;50.194;2022-09-27T04:25:18;100893.28;;;31.68;15.61
72794;BME280;63436;26.334;50.194;2022-09-27T04:27:44;100903.87;;;32.34;15.27
72794;BME280;63436;26.334;50.194;2022-09-27T04:30:15;100906.16;;;32.26;15.15
72794;BME280;63436;26.334;50.194;2022-09-27T04:32:34;100902.66;;;32.60;15.44
72794;BME280;63436;26.334;50.194;2022-09-27T04:35:00;100897.52;;;32.21;15.41
72794;BME280;63436;26.334;50.194;2022-09-27T04:39:51;100891.65;;;33.25;15.25
72794;BME280;63436;26.334;50.194;2022-09-27T04:42:17;100901.51;;;32.79;15.62
72794;BME280;63436;26.334;50.194;2022-09-27T04:44:42;100907.29;;;32.92;15.82
72794;BME280;63436;26.334;50.194;2022-09-27T04:47:10;100908.74;;;33.46;15.36
72794;BME280;63436;26.334;50.194;2022-09-27T04:49:33;100912.80;;;33.24;15.73
72794;BME280;63436;26.334;50.194;2022-09-27T04:51:58;100906.80;;;33.61;15.38
72794;BME280;63436;26.334;50.194;2022-09-27T04:54:25;100911.14;;;33.09;16.04
72794;BME280;63436;26.334;50.194;2022-09-27T04:56:50;100905.80;;;33.61;16.10
72794;BME280;63436;26.334;50.194;2022-09-27T04:59:17;100906.09;;;34.12;15.57
72794;BME280;63436;26.334;50.194;2022-09-27T05:01:52;100909.46;;;34.46;15.45
72794;BME280;63436;26.334;50.194;2022-09-27T05:04:08;100912.99;;;34.43;15.51
72794;BME280;63436;26.334;50.194;2022-09-27T05:06:37;100918.53;;;34.59;15.20
72794;BME280;63436;26.334;50.194;2022-09-27T05:08:57;100917.82;;;34.87;15.59
72794;BME280;63436;26.334;50.194;2022-09-27T05:11:23;100920.22;;;33.34;16.26
72794;BME280;63436;26.334;50.194;2022-09-27T05:16:13;100921.72;;;33.09;17.15
72794;BME280;63436;26.334;50.194;2022-09-27T05:18:38;100919.63;;;34.08;16.45
72794;BME280;63436;26.334;50.194;2022-09-27T05:21:04;100916.93;;;34.62;16.63
72794;BME280;63436;26.334;50.194;2022-09-27T05:23:31;100919.55;;;34.89;15.88
72794;BME280;63436;26.334;50.194;2022-09-27T05:25:55;100924.63;;;34.04;16.63
72794;BME280;63436;26.334;50.194;2022-09-27T05:28:21;100928.25;;;34.23;16.37
72794;BME280;63436;26.334;50.194;2022-09-27T05:30:49;100933.32;;;33.66;16.91
72794;BME280;63436;26.334;50.194;2022-09-27T05:33:15;100931.95;;;34.07;16.97
72794;BME280;63436;26.334;50.194;2022-09-27T05:35:37;100926.37;;;33.85;16.66
72794;BME280;63436;26.334;50.194;2022-09-27T05:40:29;100915.41;;;35.02;17.09
72794;BME280;63436;26.334;50.194;2022-09-27T05:43:00;100916.57;;;34.73;18.03
72794;BME280;63436;26.334;50.194;2022-09-27T05:45:34;100924.31;;;34.36;17.92
72794;BME280;63436;26.334;50.194;2022-09-27T05:48:13;100923.63;;;33.52;18.36
72794;BME280;63436;26.334;50.194;2022-09-27T05:50:27;100929.23;;;34.20;18.24
72794;BME280;63436;26.334;50.194;2022-09-27T05:52:47;100924.11;;;35.56;17.44
72794;BME280;63436;26.334;50.194;2022-09-27T05:55:22;100926.12;;;35.44;17.53
72794;BME280;63436;26.334;50.194;2022-09-27T05:57:42;100927.44;;;34.56;18.38
72794;BME280;63436;26.334;50.194;2022-09-27T06:00:21;100930.48;;;35.62;17.68
72794;BME280;63436;26.334;50.194;2022-09-27T06:02:44;100930.87;;;36.93;17.62
72794;BME280;63436;26.334;50.194;2022-09-27T06:05:00;100927.61;;;35.02;18.92
72794;BME280;63436;26.334;50.194;2022-09-27T06:07:21;100926.34;;;35.61;19.04
72794;BME280;63436;26.334;50.194;2022-09-27T06:09:46;100930.33;;;34.68;20.21
72794;BME280;63436;26.334;50.194;2022-09-27T06:12:11;100928.76;;;35.50;18.84
72794;BME280;63436;26.334;50.194;2022-09-27T06:17:03;100931.96;;;33.92;20.33
72794;BME280;63436;26.334;50.194;2022-09-27T06:19:28;100930.27;;;34.61;19.52
72794;BME280;63436;26.334;50.194;2022-09-27T06:21:54;100931.52;;;35.34;19.17
72794;BME280;63436;26.334;50.194;2022-09-27T06:24:19;100931.71;;;34.56;20.93
72794;BME280;63436;26.334;50.194;2022-09-27T06:26:49;100933.82;;;35.27;19.68
72794;BME280;63436;26.334;50.194;2022-09-27T06:29:10;100933.79;;;35.92;19.38
72794;BME280;63436;26.334;50.194;2022-09-27T06:31:40;100930.74;;;36.11;19.64
72794;BME280;63436;26.334;50.194;2022-09-27T06:34:01;100927.83;;;35.61;19.95
72794;BME280;63436;26.334;50.194;2022-09-27T06:36:26;100932.99;;;34.86;20.10
72794;BME280;63436;26.334;50.194;2022-09-27T06:38:52;100933.18;;;36.02;20.05
72794;BME280;63436;26.334;50.194;2022-09-27T06:41:17;100938.22;;;34.73;21.97
72794;BME280;63436;26.334;50.194;2022-09-27T06:43:43;100939.01;;;34.55;21.75
72794;BME280;63436;26.334;50.194;2022-09-27T06:46:09;100938.91;;;34.50;22.47
72794;BME280;63436;26.334;50.194;2022-09-27T06:48:34;100928.68;;;34.40;23.11
72794;BME280;63436;26.334;50.194;2022-09-27T06:50:59;100934.06;;;34.52;24.36
72794;BME280;63436;26.334;50.194;2022-09-27T06:53:25;100931.30;;;35.06;24.42
72794;BME280;63436;26.334;50.194;2022-09-27T06:55:49;100936.67;;;35.27;23.83
72794;BME280;63436;26.334;50.194;2022-09-27T06:58:20;100936.87;;;35.27;23.95
72794;BME280;63436;26.334;50.194;2022-09-27T07:00:48;100938.78;;;33.11;25.68
72794;BME280;63436;26.334;50.194;2022-09-27T07:03:16;100934.49;;;35.57;23.66
72794;BME280;63436;26.334;50.194;2022-09-27T07:05:37;100928.98;;;35.63;23.14
72794;BME280;63436;26.334;50.194;2022-09-27T07:08:09;100928.55;;;34.98;23.87
72794;BME280;63436;26.334;50.194;2022-09-27T07:10:33;100924.11;;;34.53;23.77
72794;BME280;63436;26.334;50.194;2022-09-27T07:12:48;100925.31;;;35.21;22.97
72794;BME280;63436;26.334;50.194;2022-09-27T07:15:14;100926.42;;;35.15;22.94
72794;BME280;63436;26.334;50.194;2022-09-27T07:17:39;100926.31;;;32.67;24.89
72794;BME280;63436;26.334;50.194;2022-09-27T07:20:05;100920.61;;;33.50;24.36
72794;BME280;63436;26.334;50.194;2022-09-27T07:22:30;100923.37;;;34.26;23.88
72794;BME280;63436;26.334;50.194;2022-09-27T07:24:55;100922.17;;;34.13;24.52
72794;BME280;63436;26.334;50.194;2022-09-27T07:27:21;100920.45;;;34.81;23.34
72794;BME280;63436;26.334;50.194;2022-09-27T07:29:57;100908.53;;;34.62;23.39
72794;BME280;63436;26.334;50.194;2022-09-27T07:32:12;100910.94;;;34.30;23.37
72794;BME280;63436;26.334;50.194;2022-09-27T07:34:38;100909.86;;;34.38;23.59
72794;BME280;63436;26.334;50.194;2022-09-27T07:39:28;100908.60;;;33.81;24.71
72794;BME280;63436;26.334;50.194;2022-09-27T07:41:53;100905.28;;;34.21;23.99
72794;BME280;63436;26.334;50.194;2022-09-27T07:44:18;100910.87;;;35.67;23.00
72794;BME280;63436;26.334;50.194;2022-09-27T07:46:45;100903.82;;;35.83;22.94
72794;BME280;63436;26.334;50.194;2022-09-27T07:49:09;100906.85;;;36.27;22.10
72794;BME280;63436;26.334;50.194;2022-09-27T07:51:35;100908.40;;;35.11;23.78
72794;BME280;63436;26.334;50.194;2022-09-27T07:54:01;100899.89;;;34.93;24.22
72794;BME280;63436;26.334;50.194;2022-09-27T07:56:26;100902.86;;;37.08;21.77
72794;BME280;63436;26.334;50.194;2022-09-27T07:58:51;100894.90;;;36.45;22.26
72794;BME280;63436;26.334;50.194;2022-09-27T08:01:26;100896.77;;;36.39;22.67
72794;BME280;63436;26.334;50.194;2022-09-27T08:06:07;100891.04;;;35.97;23.66
72794;BME280;63436;26.334;50.194;2022-09-27T08:08:38;100887.28;;;33.66;25.31
72794;BME280;63436;26.334;50.194;2022-09-27T08:10:58;100881.71;;;37.16;21.93
72794;BME280;63436;26.334;50.194;2022-09-27T08:13:24;100889.72;;;34.37;24.63
72794;BME280;63436;26.334;50.194;2022-09-27T08:15:50;100887.33;;;35.22;25.04
72794;BME280;63436;26.334;50.194;2022-09-27T08:18:15;100885.65;;;36.30;24.69
72794;BME280;63436;26.334;50.194;2022-09-27T08:20:40;100882.91;;;35.74;25.74
72794;BME280;63436;26.334;50.194;2022-09-27T08:23:06;100878.94;;;34.40;27.14
72794;BME280;63436;26.334;50.194;2022-09-27T08:25:30;100875.18;;;33.94;26.60
72794;BME280;63436;26.334;50.194;2022-09-27T08:27:58;100875.59;;;35.02;24.97
72794;BME280;63436;26.334;50.194;2022-09-27T08:30:28;100871.96;;;35.32;24.59
72794;BME280;63436;26.334;50.194;2022-09-27T08:32:47;100872.01;;;35.21;24.44
72794;BME280;63436;26.334;50.194;2022-09-27T08:35:13;100863.04;;;37.28;22.00
72794;BME280;63436;26.334;50.194;2022-09-27T08:37:57;100867.68;;;36.63;23.22
72794;BME280;63436;26.334;50.194;2022-09-27T08:40:09;100864.96;;;36.52;23.84
72794;BME280;63436;26.334;50.194;2022-09-27T08:42:35;100860.93;;;36.26;23.40
72794;BME280;63436;26.334;50.194;2022-09-27T08:45:02;100859.59;;;34.75;24.65
72794;BME280;63436;26.334;50.194;2022-09-27T08:47:24;100854.85;;;35.82;23.13
72794;BME280;63436;26.334;50.194;2022-09-27T08:49:51;100842.85;;;36.40;22.90
72794;BME280;63436;26.334;50.194;2022-09-27T08:52:16;100846.86;;;36.09;23.14
72794;BME280;63436;26.334;50.194;2022-09-27T08:54:36;100844.37;;;35.34;23.29
72794;BME280;63436;26.334;50.194;2022-09-27T08:57:04;100839.02;;;35.69;23.15
72794;BME280;63436;26.334;50.194;2022-09-27T08:59:29;100833.74;;;35.13;24.21
72794;BME280;63436;26.334;50.194;2022-09-27T09:01:53;100832.43;;;35.47;23.36
72794;BME280;63436;26.334;50.194;2022-09-27T09:04:23;100828.58;;;35.87;22.96
72794;BME280;63436;26.334;50.194;2022-09-27T09:09:20;100830.30;;;35.50;23.22
72794;BME280;63436;26.334;50.194;2022-09-27T09:11:43;100822.51;;;36.09;22.52
72794;BME280;63436;26.334;50.194;2022-09-27T09:16:34;100822.44;;;34.16;23.95
72794;BME280;63436;26.334;50.194;2022-09-27T09:21:24;100818.10;;;35.05;21.84
72794;BME280;63436;26.334;50.194;2022-09-27T09:23:50;100815.44;;;36.88;20.22
72794;BME280;63436;26.334;50.194;2022-09-27T09:26:12;100821.04;;;33.87;21.07
72794;BME280;63436;26.334;50.194;2022-09-27T09:28:44;100818.03;;;35.87;19.91
72794;BME280;63436;26.334;50.194;2022-09-27T09:35:53;100805.27;;;36.06;18.84
72794;BME280;63436;26.334;50.194;2022-09-27T09:38:17;100806.35;;;35.60;18.64
72794;BME280;63436;26.334;50.194;2022-09-27T09:43:12;100803.24;;;36.65;19.28
72794;BME280;63436;26.334;50.194;2022-09-27T09:48:01;100801.32;;;34.04;20.04
72794;BME280;63436;26.334;50.194;2022-09-27T09:50:24;100794.71;;;35.72;18.87
72794;BME280;63436;26.334;50.194;2022-09-27T09:52:50;100791.30;;;37.03;17.96
72794;BME280;63436;26.334;50.194;2022-09-27T09:55:19;100787.35;;;37.90;17.27
72794;BME280;63436;26.334;50.194;2022-09-27T09:57:41;100787.81;;;36.07;20.21
72794;BME280;63436;26.334;50.194;2022-09-27T10:00:11;100786.29;;;35.18;20.90
72794;BME280;63436;26.334;50.194;2022-09-27T10:09:46;100776.09;;;35.06;20.47
72794;BME280;63436;26.334;50.194;2022-09-27T10:12:10;100775.05;;;35.90;19.21
72794;BME280;63436;26.334;50.194;2022-09-27T10:14:36;100770.71;;;36.80;19.10
72794;BME280;63436;26.334;50.194;2022-09-27T10:17:05;100767.22;;;36.43;18.68
72794;BME280;63436;26.334;50.194;2022-09-27T10:19:36;100765.65;;;36.03;18.49
72794;BME280;63436;26.334;50.194;2022-09-27T10:26:50;100766.01;;;36.56;19.05
72794;BME280;63436;26.334;50.194;2022-09-27T10:31:35;100758.85;;;36.04;18.83
72794;BME280;63436;26.334;50.194;2022-09-27T10:34:17;100756.87;;;36.73;19.06
72794;BME280;63436;26.334;50.194;2022-09-27T10:36:31;100758.29;;;36.93;19.20
72794;BME280;63436;26.334;50.194;2022-09-27T10:38:52;100753.16;;;35.92;20.35
72794;BME280;63436;26.334;50.194;2022-09-27T10:41:23;100756.54;;;34.11;22.42
72794;BME280;63436;26.334;50.194;2022-09-27T10:43:46;100751.94;;;36.33;20.80
72794;BME280;63436;26.334;50.194;2022-09-27T10:46:14;100754.59;;;36.72;20.96
72794;BME280;63436;26.334;50.194;2022-09-27T10:48:32;100752.53;;;36.96;20.13
72794;BME280;63436;26.334;50.194;2022-09-27T10:50:58;100749.09;;;38.96;18.57
72794;BME280;63436;26.334;50.194;2022-09-27T10:53:23;100752.77;;;36.63;20.34
72794;BME280;63436;26.334;50.194;2022-09-27T10:55:50;100748.55;;;35.76;21.48
72794;BME280;63436;26.334;50.194;2022-09-27T10:58:17;100747.93;;;36.92;21.01
72794;BME280;63436;26.334;50.194;2022-09-27T11:00:39;100747.44;;;36.89;20.94
72794;BME280;63436;26.334;50.194;2022-09-27T11:03:13;100750.52;;;36.60;20.54
72794;BME280;63436;26.334;50.194;2022-09-27T11:08:17;100750.89;;;35.97;20.17
72794;BME280;63436;26.334;50.194;2022-09-27T11:10:28;100751.76;;;35.70;19.98
72794;BME280;63436;26.334;50.194;2022-09-27T11:12:46;100746.06;;;36.76;19.54
72794;BME280;63436;26.334;50.194;2022-09-27T11:15:15;100737.10;;;37.83;18.70
72794;BME280;63436;26.334;50.194;2022-09-27T11:17:43;100742.42;;;37.77;19.04
72794;BME280;63436;26.334;50.194;2022-09-27T11:20:13;100744.94;;;36.61;19.63
72794;BME280;63436;26.334;50.194;2022-09-27T11:25:01;100744.97;;;35.44;20.17
72794;BME280;63436;26.334;50.194;2022-09-27T11:27:27;100745.41;;;35.42;20.48
72794;BME280;63436;26.334;50.194;2022-09-27T11:30:02;100748.66;;;35.47;20.89
72794;BME280;63436;26.334;50.194;2022-09-27T11:32:31;100747.24;;;35.17;20.94
72794;BME280;63436;26.334;50.194;2022-09-27T11:37:09;100745.90;;;33.81;22.71
72794;BME280;63436;26.334;50.194;2022-09-27T11:39:32;100739.71;;;35.35;21.57
72794;BME280;63436;26.334;50.194;2022-09-27T11:46:47;100741.22;;;35.65;21.17
72794;BME280;63436;26.334;50.194;2022-09-27T11:49:18;100744.40;;;36.56;20.11
72794;BME280;63436;26.334;50.194;2022-09-27T11:56:35;100736.24;;;35.00;20.75
72794;BME280;63436;26.334;50.194;2022-09-27T11:59:01;100735.59;;;35.29;20.55
72794;BME280;63436;26.334;50.194;2022-09-27T12:01:26;100737.59;;;35.17;20.48
72794;BME280;63436;26.334;50.194;2022-09-27T12:06:12;100740.48;;;34.22;21.73
72794;BME280;63436;26.334;50.194;2022-09-27T12:08:42;100740.32;;;36.55;19.80
72794;BME280;63436;26.334;50.194;2022-09-27T12:11:01;100735.67;;;35.62;20.36
72794;BME280;63436;26.334;50.194;2022-09-27T12:13:28;100737.65;;;37.02;19.64
72794;BME280;63436;26.334;50.194;2022-09-27T12:15:48;100740.04;;;35.25;20.92
72794;BME280;63436;26.334;50.194;2022-09-27T12:18:20;100743.46;;;35.85;21.39
72794;BME280;63436;26.334;50.194;2022-09-27T12:20:40;100749.25;;;34.64;21.73
72794;BME280;63436;26.334;50.194;2022-09-27T12:23:07;100740.68;;;35.78;20.77
72794;BME280;63436;26.334;50.194;2022-09-27T12:25:35;100745.28;;;33.76;22.56
72794;BME280;63436;26.334;50.194;2022-09-27T12:27:59;100740.39;;;33.35;23.14
72794;BME280;63436;26.334;50.194;2022-09-27T12:35:17;100738.17;;;33.68;21.63
72794;BME280;63436;26.334;50.194;2022-09-27T12:37:49;100738.67;;;34.71;21.36
72794;BME280;63436;26.334;50.194;2022-09-27T12:40:06;100733.57;;;36.67;19.96
72794;BME280;63436;26.334;50.194;2022-09-27T12:42:32;100731.22;;;37.48;18.70
72794;BME280;63436;26.334;50.194;2022-09-27T12:44:52;100739.35;;;34.33;21.06
72794;BME280;63436;26.334;50.194;2022-09-27T12:49:49;100734.48;;;35.43;20.78
72794;BME280;63436;26.334;50.194;2022-09-27T12:52:11;100739.84;;;34.26;21.26
72794;BME280;63436;26.334;50.194;2022-09-27T12:54:47;100743.29;;;34.87;20.75
72794;BME280;63436;26.334;50.194;2022-09-27T12:57:05;100738.34;;;35.54;20.11
72794;BME280;63436;26.334;50.194;2022-09-27T12:59:42;100743.04;;;34.36;20.97
72794;BME280;63436;26.334;50.194;2022-09-27T13:02:02;100747.91;;;35.04;20.66
72794;BME280;63436;26.334;50.194;2022-09-27T13:04:33;100755.57;;;34.13;21.21
72794;BME280;63436;26.334;50.194;2022-09-27T13:06:53;100753.30;;;34.74;20.80
72794;BME280;63436;26.334;50.194;2022-09-27T13:11:43;100757.51;;;34.03;22.03
72794;BME280;63436;26.334;50.194;2022-09-27T13:13:59;100754.34;;;34.33;21.35
72794;BME280;63436;26.334;50.194;2022-09-27T13:16:24;100754.64;;;34.07;21.54
72794;BME280;63436;26.334;50.194;2022-09-27T13:18:52;100749.58;;;35.32;19.78
72794;BME280;63436;26.334;50.194;2022-09-27T13:23:48;100752.97;;;33.34;21.67
72794;BME280;63436;26.334;50.194;2022-09-27T13:28:32;100750.74;;;35.90;19.70
72794;BME280;63436;26.334;50.194;2022-09-27T13:33:31;100751.04;;;34.53;20.96
72794;BME280;63436;26.334;50.194;2022-09-27T13:38:19;100756.97;;;35.10;20.86
72794;BME280;63436;26.334;50.194;2022-09-27T13:40:40;100756.29;;;35.00;20.77
72794;BME280;63436;26.334;50.194;2022-09-27T13:45:34;100759.00;;;34.99;20.53
72794;BME280;63436;26.334;50.194;2022-09-27T13:47:56;100758.64;;;33.16;21.88
72794;BME280;63436;26.334;50.194;2022-09-27T13:50:23;100760.24;;;34.37;20.91
72794;BME280;63436;26.334;50.194;2022-09-27T13:57:46;100757.60;;;36.14;19.44
72794;BME280;63436;26.334;50.194;2022-09-27T14:00:02;100757.62;;;35.32;20.23
72794;BME280;63436;26.334;50.194;2022-09-27T14:02:30;100759.54;;;33.71;21.78
72794;BME280;63436;26.334;50.194;2022-09-27T14:04:52;100759.79;;;35.41;20.05
72794;BME280;63436;26.334;50.194;2022-09-27T14:07:20;100759.61;;;33.03;21.59
72794;BME280;63436;26.334;50.194;2022-09-27T14:09:46;100758.87;;;34.88;20.39
72794;BME280;63436;26.334;50.194;2022-09-27T14:12:11;100766.72;;;34.40;20.66
72794;BME280;63436;26.334;50.194;2022-09-27T14:14:34;100768.25;;;33.18;20.88
72794;BME280;63436;26.334;50.194;2022-09-27T14:17:00;100765.86;;;31.97;22.19
72794;BME280;63436;26.334;50.194;2022-09-27T14:19:25;100768.97;;;34.40;21.02
72794;BME280;63436;26.334;50.194;2022-09-27T14:21:54;100772.59;;;34.28;21.22
72794;BME280;63436;26.334;50.194;2022-09-27T14:24:27;100769.86;;;34.55;20.73
72794;BME280;63436;26.334;50.194;2022-09-27T14:26:41;100768.53;;;32.86;22.52
72794;BME280;63436;26.334;50.194;2022-09-27T14:31:33;100766.33;;;33.64;22.22
72794;BME280;63436;26.334;50.194;2022-09-27T14:34:05;100764.66;;;34.57;21.53
72794;BME280;63436;26.334;50.194;2022-09-27T14:38:49;100764.93;;;35.30;20.73
72794;BME280;63436;26.334;50.194;2022-09-27T14:41:14;100764.12;;;35.10;20.56
72794;BME280;63436;26.334;50.194;2022-09-27T14:43:42;100762.39;;;33.90;22.06